createdAt,value
2022-10-28T00:01:28.857Z,14.97
2022-10-28T00:03:59.313Z,15.33
2022-10-28T00:06:33.277Z,15.00
2022-10-28T00:09:04.592Z,15.12
2022-10-28T00:11:36.355Z,15.36
2022-10-28T00:14:07.362Z,14.86
2022-10-28T00:16:37.890Z,14.69
2022-10-28T00:19:07.685Z,14.35
2022-10-28T00:21:37.394Z,13.96
2022-10-28T00:24:06.946Z,13.61
2022-10-28T00:26:36.852Z,13.25
2022-10-28T00:29:14.442Z,13.03
2022-10-28T00:31:43.136Z,12.78
2022-10-28T00:34:17.527Z,12.72
2022-10-28T00:36:47.560Z,12.49
2022-10-28T00:39:19.313Z,12.33
2022-10-28T00:41:50.404Z,12.29
2022-10-28T00:44:41.294Z,12.73
2022-10-28T00:47:38.581Z,13.28
2022-10-28T00:50:26.758Z,13.81
2022-10-28T00:53:02.110Z,14.23
2022-10-28T00:55:31.985Z,14.25
2022-10-28T00:58:02.848Z,14.03
2022-10-28T01:00:31.945Z,13.72
2022-10-28T01:03:00.536Z,13.50
2022-10-28T01:05:31.656Z,13.52
2022-10-28T01:08:02.090Z,13.58
2022-10-28T01:10:44.136Z,13.67
2022-10-28T01:13:52.723Z,13.67
2022-10-28T01:17:13.538Z,13.71
2022-10-28T01:20:00.243Z,13.70
2022-10-28T01:22:41.514Z,13.68
2022-10-28T01:25:54.338Z,13.78
2022-10-28T01:28:28.211Z,14.14
2022-10-28T01:31:27.203Z,14.90
2022-10-28T01:34:39.962Z,15.62
2022-10-28T01:37:34.065Z,15.77
2022-10-28T01:40:27.111Z,15.97
2022-10-28T01:43:25.282Z,16.42
2022-10-28T01:46:08.506Z,16.36
2022-10-28T01:48:53.271Z,15.45
2022-10-28T01:51:35.881Z,14.62
2022-10-28T01:54:07.746Z,14.38
2022-10-28T01:56:41.036Z,14.91
2022-10-28T01:59:18.010Z,15.34
2022-10-28T02:01:46.275Z,15.36
2022-10-28T02:04:15.591Z,15.76
2022-10-28T02:06:48.217Z,16.48
2022-10-28T02:09:47.171Z,16.25
2022-10-28T02:12:26.711Z,15.17
2022-10-28T02:15:16.906Z,14.68
2022-10-28T02:17:57.551Z,15.44
2022-10-28T02:20:31.878Z,15.91
2022-10-28T02:23:33.960Z,16.51
2022-10-28T02:26:22.813Z,17.26
2022-10-28T02:29:20.185Z,17.07
2022-10-28T02:31:53.877Z,15.99
2022-10-28T02:34:27.688Z,15.18
2022-10-28T02:36:59.847Z,14.92
2022-10-28T02:39:36.748Z,15.65
2022-10-28T02:42:24.314Z,15.69
2022-10-28T02:45:01.067Z,15.61
2022-10-28T02:47:34.010Z,15.51
2022-10-28T02:50:07.818Z,15.47
2022-10-28T02:52:36.764Z,15.49
2022-10-28T02:55:06.678Z,16.06
2022-10-28T02:57:39.504Z,16.78
2022-10-28T03:00:11.482Z,16.96
2022-10-28T03:02:39.596Z,16.09
2022-10-28T03:05:08.265Z,15.22
2022-10-28T03:07:36.301Z,14.52
2022-10-28T03:10:04.893Z,14.07
2022-10-28T03:12:33.715Z,14.25
2022-10-28T03:15:03.284Z,15.31
2022-10-28T03:17:31.777Z,16.12
2022-10-28T03:20:00.045Z,16.65
2022-10-28T03:22:28.209Z,16.61
2022-10-28T03:24:56.278Z,15.75
2022-10-28T03:27:25.698Z,14.87
2022-10-28T03:29:53.922Z,14.40
2022-10-28T03:34:55.141Z,15.92
2022-10-28T03:37:23.258Z,16.24
2022-10-28T03:39:51.373Z,16.36
2022-10-28T03:42:20.271Z,16.29
2022-10-28T03:44:48.227Z,16.31
2022-10-28T03:47:19.065Z,16.27
2022-10-28T03:49:47.248Z,16.23
2022-10-28T03:52:15.242Z,15.94
2022-10-28T03:54:43.390Z,15.64
2022-10-28T03:57:14.342Z,15.28
2022-10-28T03:59:42.401Z,14.95
2022-10-28T04:02:11.213Z,14.69
2022-10-28T04:04:39.673Z,14.48
2022-10-28T04:07:07.743Z,14.40
2022-10-28T04:09:35.909Z,14.18
2022-10-28T04:12:08.204Z,13.94
2022-10-28T04:14:36.259Z,13.69
2022-10-28T04:17:04.424Z,13.51
2022-10-28T04:19:35.060Z,13.31
2022-10-28T04:22:03.163Z,13.10
2022-10-28T04:24:31.411Z,12.92
2022-10-28T04:26:59.691Z,12.78
2022-10-28T04:29:27.830Z,12.77
2022-10-28T04:31:56.003Z,12.68
2022-10-28T04:34:24.167Z,12.56
2022-10-28T04:36:52.664Z,12.74
2022-10-28T04:39:21.464Z,12.79
2022-10-28T04:41:49.818Z,12.72
2022-10-28T04:44:18.598Z,12.68
2022-10-28T04:46:46.890Z,12.67
2022-10-28T04:49:15.062Z,12.57
2022-10-28T04:51:43.283Z,12.47
2022-10-28T04:54:12.372Z,12.43
2022-10-28T04:56:40.398Z,12.46
2022-10-28T04:59:08.429Z,12.33
2022-10-28T05:01:37.391Z,12.05
2022-10-28T05:04:06.272Z,11.84
2022-10-28T05:06:34.322Z,12.01
2022-10-28T05:09:06.802Z,12.58
2022-10-28T05:11:34.949Z,13.24
2022-10-28T05:14:03.874Z,13.69
2022-10-28T05:16:32.126Z,14.14
2022-10-28T05:19:00.331Z,13.94
2022-10-28T05:21:28.705Z,13.70
2022-10-28T05:23:57.400Z,13.56
2022-10-28T05:26:25.558Z,13.46
2022-10-28T05:28:53.703Z,13.28
2022-10-28T05:31:22.105Z,13.20
2022-10-28T05:33:57.651Z,13.50
2022-10-28T05:36:31.648Z,13.59
2022-10-28T05:39:02.505Z,13.58
2022-10-28T05:41:34.039Z,13.66
2022-10-28T05:44:04.584Z,13.61
2022-10-28T05:46:32.861Z,13.55
2022-10-28T05:49:01.026Z,13.49
2022-10-28T05:51:29.106Z,13.64
2022-10-28T05:53:58.739Z,14.01
2022-10-28T05:56:27.408Z,14.35
2022-10-28T05:58:58.156Z,14.75
2022-10-28T06:01:26.606Z,15.06
2022-10-28T06:03:55.074Z,15.31
2022-10-28T06:06:23.378Z,15.53
2022-10-28T06:08:51.543Z,15.62
2022-10-28T06:11:18.503Z,15.70
2022-10-28T06:13:47.384Z,15.60
2022-10-28T06:16:16.176Z,15.66
2022-10-28T06:18:44.545Z,15.78
2022-10-28T06:21:13.342Z,15.89
2022-10-28T06:23:41.391Z,16.03
2022-10-28T06:26:09.696Z,16.06
2022-10-28T06:28:37.974Z,16.06
2022-10-28T06:31:07.968Z,16.19
2022-10-28T06:33:36.159Z,16.23
2022-10-28T06:36:05.350Z,16.10
2022-10-28T06:38:33.536Z,16.01
2022-10-28T06:41:45.154Z,15.85
2022-10-28T06:44:13.420Z,15.67
2022-10-28T06:46:43.100Z,15.67
2022-10-28T06:49:11.305Z,15.67
2022-10-28T06:51:39.460Z,15.66
2022-10-28T06:54:07.626Z,15.60
2022-10-28T06:56:35.914Z,15.62
2022-10-28T06:59:04.095Z,16.09
2022-10-28T07:01:32.389Z,16.61
2022-10-28T07:04:01.701Z,16.83
2022-10-28T07:06:29.843Z,16.91
2022-10-28T07:08:58.022Z,16.97
2022-10-28T07:11:26.342Z,17.17
2022-10-28T07:13:54.482Z,17.38
2022-10-28T07:16:22.660Z,17.42
2022-10-28T07:18:50.917Z,17.31
2022-10-28T07:21:21.971Z,17.26
2022-10-28T07:23:50.332Z,17.34
2022-10-28T07:26:18.425Z,17.38
2022-10-28T07:28:46.708Z,17.36
2022-10-28T07:31:14.880Z,17.29
2022-10-28T07:33:43.256Z,17.14
2022-10-28T07:36:12.239Z,16.99
2022-10-28T07:38:40.743Z,16.87
2022-10-28T07:41:10.734Z,16.82
2022-10-28T07:43:39.619Z,16.77
2022-10-28T07:46:08.008Z,16.74
2022-10-28T07:48:37.613Z,16.77
2022-10-28T07:51:08.303Z,16.76
2022-10-28T07:53:37.428Z,16.73
2022-10-28T07:56:13.914Z,16.79
2022-10-28T07:58:44.082Z,16.75
2022-10-28T08:01:15.367Z,16.73
2022-10-28T08:03:44.144Z,16.79
2022-10-28T08:06:18.817Z,16.80
2022-10-28T08:08:49.101Z,16.83
2022-10-28T08:11:19.402Z,16.88
2022-10-28T08:13:47.593Z,16.95
2022-10-28T08:16:16.861Z,17.03
2022-10-28T08:18:46.118Z,17.05
2022-10-28T08:21:15.538Z,17.11
2022-10-28T08:23:47.093Z,17.22
2022-10-28T08:26:17.035Z,17.36
2022-10-28T08:28:45.090Z,17.51
2022-10-28T08:31:13.892Z,17.67
2022-10-28T08:33:47.015Z,17.82
2022-10-28T08:36:16.898Z,17.89
2022-10-28T08:38:46.816Z,17.95
2022-10-28T08:41:24.178Z,18.01
2022-10-28T08:43:58.169Z,18.08
2022-10-28T08:47:04.398Z,18.20
2022-10-28T08:49:39.530Z,18.37
2022-10-28T08:52:27.763Z,18.45
2022-10-28T08:55:04.857Z,18.55
2022-10-28T08:57:57.805Z,18.71
2022-10-28T09:00:29.739Z,18.84
2022-10-28T09:03:13.623Z,18.90
2022-10-28T09:05:48.362Z,18.95
2022-10-28T09:08:26.361Z,18.99
2022-10-28T09:11:13.769Z,19.02
2022-10-28T09:14:01.890Z,19.07
2022-10-28T09:16:48.355Z,19.10
2022-10-28T09:19:22.576Z,19.13
2022-10-28T09:22:04.858Z,19.19
2022-10-28T09:24:49.657Z,19.26
2022-10-28T09:27:52.679Z,19.36
2022-10-28T09:30:49.735Z,19.47
2022-10-28T09:33:55.295Z,19.56
2022-10-28T09:36:46.507Z,19.65
2022-10-28T09:39:23.898Z,19.74
2022-10-28T09:41:59.750Z,19.80
2022-10-28T09:44:43.688Z,19.86
2022-10-28T09:47:29.314Z,19.94
2022-10-28T09:50:01.752Z,20.02
2022-10-28T09:53:01.257Z,20.11
2022-10-28T09:55:29.728Z,20.38
2022-10-28T09:57:58.013Z,20.60
2022-10-28T10:00:26.734Z,20.72
2022-10-28T10:03:00.172Z,20.88
2022-10-28T10:05:31.398Z,21.07
2022-10-28T10:08:05.141Z,21.15
2022-10-28T10:10:45.804Z,21.20
2022-10-28T10:13:17.878Z,21.27
2022-10-28T10:15:51.906Z,21.35
2022-10-28T10:18:27.340Z,21.40
2022-10-28T10:21:00.823Z,21.47
2022-10-28T10:23:31.048Z,21.51
2022-10-28T10:26:09.719Z,21.57
2022-10-28T10:28:48.051Z,21.66
2022-10-28T10:31:24.249Z,21.75
2022-10-28T10:33:55.809Z,21.84
2022-10-28T10:36:28.858Z,21.91
2022-10-28T10:38:59.559Z,21.98
2022-10-28T10:41:44.537Z,22.05
2022-10-28T10:44:21.749Z,22.15
2022-10-28T10:46:53.330Z,22.22
2022-10-28T10:49:21.509Z,22.29
2022-10-28T10:51:57.269Z,22.32
2022-10-28T10:54:27.594Z,22.36
2022-10-28T10:57:26.938Z,22.40
2022-10-28T10:59:57.213Z,22.44
2022-10-28T11:02:32.655Z,22.47
2022-10-28T11:05:07.946Z,22.51
2022-10-28T11:07:40.787Z,22.55
2022-10-28T11:10:29.519Z,22.60
2022-10-28T11:13:04.369Z,22.65
2022-10-28T11:15:33.367Z,22.68
2022-10-28T11:18:04.790Z,22.73
2022-10-28T11:20:47.334Z,22.77
2022-10-28T11:23:35.543Z,22.82
2022-10-28T11:26:08.863Z,22.88
2022-10-28T11:29:01.922Z,22.91
2022-10-28T11:31:46.315Z,22.95
2022-10-28T11:34:26.650Z,23.00
2022-10-28T11:37:19.799Z,23.04
2022-10-28T11:40:13.691Z,23.09
2022-10-28T11:43:03.659Z,23.15
2022-10-28T11:45:44.743Z,23.21
2022-10-28T11:48:27.445Z,23.26
2022-10-28T11:51:18.773Z,23.32
2022-10-28T11:54:05.590Z,23.37
2022-10-28T11:56:39.481Z,23.40
2022-10-28T11:59:46.676Z,23.44
2022-10-28T12:02:33.754Z,23.48
2022-10-28T12:05:05.884Z,23.52
2022-10-28T12:08:04.542Z,23.53
2022-10-28T12:10:58.516Z,23.56
2022-10-28T12:14:06.266Z,23.58
2022-10-28T12:16:50.397Z,23.62
2022-10-28T12:19:28.269Z,23.63
2022-10-28T12:22:29.118Z,23.65
2022-10-28T12:25:02.702Z,23.65
2022-10-28T12:27:36.529Z,23.65
2022-10-28T12:30:21.494Z,23.65
2022-10-28T12:33:04.309Z,23.67
2022-10-28T12:35:37.612Z,23.67
2022-10-28T12:38:20.287Z,23.64
2022-10-28T12:40:57.273Z,23.58
2022-10-28T12:43:39.705Z,23.49
2022-10-28T12:46:18.830Z,23.41
2022-10-28T12:48:58.865Z,23.33
2022-10-28T12:51:41.602Z,23.24
2022-10-28T12:54:23.195Z,23.15
2022-10-28T12:57:02.121Z,23.11
2022-10-28T12:59:39.092Z,23.08
2022-10-28T13:02:17.578Z,23.09
2022-10-28T13:04:45.890Z,23.10
2022-10-28T13:07:23.195Z,23.12
2022-10-28T13:10:30.769Z,23.14
2022-10-28T13:13:20.459Z,23.17
2022-10-28T13:16:19.866Z,23.19
2022-10-28T13:19:16.813Z,23.20
2022-10-28T13:22:08.025Z,23.21
2022-10-28T13:24:51.065Z,23.21
2022-10-28T13:27:20.435Z,23.19
2022-10-28T13:29:55.206Z,23.18
2022-10-28T13:32:37.513Z,23.16
2022-10-28T13:35:28.277Z,23.13
2022-10-28T13:37:57.871Z,23.10
2022-10-28T13:40:32.213Z,23.07
2022-10-28T13:43:02.017Z,23.02
2022-10-28T13:45:52.253Z,22.98
2022-10-28T13:48:29.604Z,22.95
2022-10-28T13:51:10.072Z,22.91
2022-10-28T13:53:47.965Z,22.86
2022-10-28T13:56:25.762Z,22.81
2022-10-28T13:58:58.244Z,22.76
2022-10-28T14:01:37.761Z,22.73
2022-10-28T14:04:19.895Z,22.68
2022-10-28T14:06:48.574Z,22.64
2022-10-28T14:09:28.005Z,22.58
2022-10-28T14:12:18.745Z,22.54
2022-10-28T14:15:07.159Z,22.49
2022-10-28T14:17:45.369Z,22.42
2022-10-28T14:20:22.559Z,22.36
2022-10-28T14:22:54.607Z,22.30
2022-10-28T14:25:41.850Z,22.23
2022-10-28T14:28:32.357Z,22.14
2022-10-28T14:31:10.366Z,22.05
2022-10-28T14:33:42.287Z,21.97
2022-10-28T14:36:20.119Z,21.89
2022-10-28T14:39:03.747Z,21.82
2022-10-28T14:42:09.515Z,21.74
2022-10-28T14:45:05.531Z,21.63
2022-10-28T14:48:01.752Z,21.54
2022-10-28T14:50:51.743Z,21.44
2022-10-28T14:53:30.469Z,21.34
2022-10-28T14:56:06.364Z,21.24
2022-10-28T14:58:39.283Z,21.14
2022-10-28T15:01:16.681Z,21.05
2022-10-28T15:03:51.212Z,20.94
2022-10-28T15:06:39.525Z,20.84
2022-10-28T15:09:19.210Z,20.72
2022-10-28T15:11:56.082Z,20.60
2022-10-28T15:14:27.947Z,20.49
2022-10-28T15:16:56.516Z,20.37
2022-10-28T15:19:29.423Z,20.27
2022-10-28T15:22:20.696Z,20.16
2022-10-28T15:24:57.058Z,20.04
2022-10-28T15:27:28.933Z,19.93
2022-10-28T15:29:58.682Z,19.83
2022-10-28T15:32:26.985Z,19.73
2022-10-28T15:34:55.543Z,19.59
2022-10-28T15:37:30.350Z,19.49
2022-10-28T15:40:19.935Z,19.38
2022-10-28T15:42:59.440Z,19.25
2022-10-28T15:45:38.318Z,19.12
2022-10-28T15:48:20.196Z,18.99
2022-10-28T15:51:12.175Z,18.87
2022-10-28T15:53:45.729Z,18.77
2022-10-28T15:56:14.717Z,18.72
2022-10-28T15:58:49.336Z,18.67
2022-10-28T16:01:40.990Z,18.61
2022-10-28T16:04:19.792Z,18.54
2022-10-28T16:06:49.905Z,18.47
2022-10-28T16:09:35.187Z,18.41
2022-10-28T16:12:15.317Z,18.34
2022-10-28T16:14:54.481Z,18.28
2022-10-28T16:17:33.697Z,18.20
2022-10-28T16:20:17.062Z,18.14
2022-10-28T16:22:49.178Z,18.08
2022-10-28T16:25:20.906Z,18.01
2022-10-28T16:27:50.600Z,17.94
2022-10-28T16:30:20.010Z,17.87
2022-10-28T16:32:51.460Z,17.78
2022-10-28T16:35:24.587Z,17.69
2022-10-28T16:37:55.541Z,17.60
2022-10-28T16:40:50.565Z,17.51
2022-10-28T16:43:19.844Z,17.41
2022-10-28T16:45:49.944Z,17.32
2022-10-28T16:48:20.028Z,17.26
2022-10-28T16:50:51.591Z,17.20
2022-10-28T16:53:20.372Z,17.16
2022-10-28T16:55:49.158Z,17.12
2022-10-28T16:58:21.887Z,17.07
2022-10-28T17:00:53.974Z,17.03
2022-10-28T17:03:26.437Z,16.97
2022-10-28T17:05:59.969Z,16.92
2022-10-28T17:08:49.392Z,16.88
2022-10-28T17:11:19.518Z,16.83
2022-10-28T17:13:48.991Z,16.77
2022-10-28T17:16:17.460Z,16.73
2022-10-28T17:18:47.682Z,16.67
2022-10-28T17:21:16.566Z,16.62
2022-10-28T17:23:46.389Z,16.57
2022-10-28T17:26:15.441Z,16.51
2022-10-28T17:28:44.696Z,16.46
2022-10-28T17:31:19.179Z,16.40
2022-10-28T17:33:55.966Z,16.33
2022-10-28T17:36:26.507Z,16.27
2022-10-28T17:38:56.768Z,16.23
2022-10-28T17:41:29.467Z,16.18
2022-10-28T17:44:00.696Z,16.19
2022-10-28T17:46:30.753Z,16.18
2022-10-28T17:49:08.640Z,16.20
2022-10-28T17:51:39.598Z,16.21
2022-10-28T17:54:10.015Z,16.21
2022-10-28T17:56:40.690Z,16.19
2022-10-28T17:59:10.979Z,16.23
2022-10-28T18:01:41.583Z,16.24
2022-10-28T18:04:12.671Z,16.20
2022-10-28T18:06:41.672Z,16.20
2022-10-28T18:09:12.995Z,16.19
2022-10-28T18:11:43.147Z,16.16
2022-10-28T18:14:12.629Z,16.14
2022-10-28T18:16:42.062Z,16.11
2022-10-28T18:19:14.212Z,16.08
2022-10-28T18:21:45.266Z,16.04
2022-10-28T18:24:14.050Z,16.03
2022-10-28T18:26:43.738Z,16.01
2022-10-28T18:29:14.287Z,16.02
2022-10-28T18:31:44.585Z,16.03
2022-10-28T18:34:13.140Z,16.04
2022-10-28T18:36:42.841Z,16.03
2022-10-28T18:39:12.809Z,16.02
2022-10-28T18:41:43.462Z,16.01
2022-10-28T18:44:14.698Z,15.99
2022-10-28T18:46:48.519Z,15.97
2022-10-28T18:49:18.069Z,15.97
2022-10-28T18:51:46.897Z,15.98
2022-10-28T18:54:15.786Z,15.98
2022-10-28T18:56:47.827Z,15.98
2022-10-28T18:59:17.761Z,15.98
2022-10-28T19:01:47.363Z,15.98
2022-10-28T19:04:16.511Z,15.98
2022-10-28T19:06:47.484Z,15.96
2022-10-28T19:09:16.646Z,15.95
2022-10-28T19:11:45.392Z,15.93
2022-10-28T19:14:14.084Z,15.89
2022-10-28T19:16:43.707Z,15.86
2022-10-28T19:19:12.366Z,15.83
2022-10-28T19:21:40.850Z,15.80
2022-10-28T19:24:09.193Z,15.78
2022-10-28T19:26:39.841Z,15.77
2022-10-28T19:29:09.057Z,15.77
2022-10-28T19:31:40.381Z,15.76
2022-10-28T19:34:11.051Z,15.76
2022-10-28T19:36:39.818Z,15.76
2022-10-28T19:39:09.163Z,15.78
2022-10-28T19:41:39.022Z,15.78
2022-10-28T19:44:08.717Z,15.79
2022-10-28T19:46:38.315Z,15.80
2022-10-28T19:49:08.601Z,15.81
2022-10-28T19:51:40.860Z,15.82
2022-10-28T19:54:15.372Z,15.82
2022-10-28T19:56:45.700Z,15.84
2022-10-28T19:59:14.695Z,15.87
2022-10-28T20:01:44.243Z,15.90
2022-10-28T20:04:13.176Z,15.92
2022-10-28T20:06:41.885Z,15.93
2022-10-28T20:09:10.953Z,15.94
2022-10-28T20:11:40.895Z,15.94
2022-10-28T20:14:12.163Z,15.94
2022-10-28T20:16:44.283Z,15.93
2022-10-28T20:19:14.265Z,15.93
2022-10-28T20:21:45.878Z,15.92
2022-10-28T20:24:17.878Z,15.90
2022-10-28T20:26:47.065Z,15.87
2022-10-28T20:29:16.034Z,15.85
2022-10-28T20:31:45.552Z,15.84
2022-10-28T20:34:15.141Z,15.82
2022-10-28T20:36:46.605Z,15.80
2022-10-28T20:39:17.408Z,15.80
2022-10-28T20:41:47.409Z,15.79
2022-10-28T20:44:17.029Z,15.77
2022-10-28T20:46:48.432Z,15.75
2022-10-28T20:49:18.004Z,15.74
2022-10-28T20:51:46.787Z,15.78
2022-10-28T20:54:16.336Z,15.78
2022-10-28T20:56:45.605Z,15.71
2022-10-28T20:59:15.003Z,15.66
2022-10-28T21:01:43.882Z,15.60
2022-10-28T21:04:12.847Z,15.50
2022-10-28T21:06:42.036Z,15.40
2022-10-28T21:09:12.029Z,15.31
2022-10-28T21:11:41.087Z,15.20
2022-10-28T21:14:09.958Z,15.11
2022-10-28T21:16:38.851Z,15.05
2022-10-28T21:19:07.947Z,14.99
2022-10-28T21:21:36.938Z,14.98
2022-10-28T21:24:06.575Z,14.99
2022-10-28T21:26:35.129Z,14.98
2022-10-28T21:29:03.327Z,14.99
2022-10-28T21:31:31.487Z,14.98
2022-10-28T21:34:01.826Z,14.97
2022-10-28T21:36:32.637Z,14.96
2022-10-28T21:39:01.019Z,14.96
2022-10-28T21:41:29.610Z,14.94
2022-10-28T21:43:58.397Z,14.92
2022-10-28T21:46:28.313Z,14.88
2022-10-28T21:48:57.011Z,14.85
2022-10-28T21:51:25.585Z,14.82
2022-10-28T21:53:53.716Z,14.80
2022-10-28T21:56:21.812Z,14.78
2022-10-28T21:58:51.429Z,14.77
2022-10-28T22:01:23.362Z,14.75
2022-10-28T22:03:55.389Z,14.74
2022-10-28T22:06:27.180Z,14.74
2022-10-28T22:08:56.218Z,14.75
2022-10-28T22:11:24.898Z,14.78
2022-10-28T22:13:58.763Z,14.85
2022-10-28T22:16:29.416Z,14.95
2022-10-28T22:18:59.770Z,15.07
2022-10-28T22:21:32.049Z,15.19
2022-10-28T22:24:01.232Z,15.32
2022-10-28T22:26:30.709Z,15.46
2022-10-28T22:29:00.426Z,15.58
2022-10-28T22:31:31.621Z,15.70
2022-10-28T22:34:00.593Z,15.83
2022-10-28T22:36:30.606Z,15.95
2022-10-28T22:38:59.595Z,16.05
2022-10-28T22:41:30.712Z,16.16
2022-10-28T22:44:01.910Z,16.24
2022-10-28T22:46:34.615Z,16.33
2022-10-28T22:49:04.522Z,16.43
2022-10-28T22:51:33.655Z,16.55
2022-10-28T22:54:02.148Z,16.63
2022-10-28T22:56:30.640Z,16.68
2022-10-28T22:59:01.306Z,16.72
2022-10-28T23:01:33.869Z,16.75
2022-10-28T23:04:02.243Z,16.76
2022-10-28T23:06:30.526Z,16.76
2022-10-28T23:08:58.865Z,16.76
2022-10-28T23:11:27.487Z,16.77
2022-10-28T23:13:56.241Z,16.78
2022-10-28T23:16:24.729Z,16.79
2022-10-28T23:18:53.614Z,16.79
2022-10-28T23:21:24.449Z,16.81
2022-10-28T23:23:54.741Z,16.82
2022-10-28T23:26:23.770Z,16.81
2022-10-28T23:28:57.992Z,16.81
2022-10-28T23:31:27.085Z,16.79
2022-10-28T23:33:55.875Z,16.77
2022-10-28T23:36:24.151Z,16.75
2022-10-28T23:38:52.740Z,16.73
2022-10-28T23:41:21.245Z,16.72
2022-10-28T23:43:49.711Z,16.71
2022-10-28T23:46:18.483Z,16.69
2022-10-28T23:48:46.561Z,16.69
2022-10-28T23:51:14.795Z,16.68
2022-10-28T23:53:42.878Z,16.68
2022-10-28T23:56:10.884Z,16.68
2022-10-28T23:58:38.942Z,16.67
